SCVD/ZAL METAR and TAF weather

Enter ICAO airport designator
Station Type Date Time Source
SCVD METAR 2019/08/20 10:00 UTC NOAA

SCVD 201000Z AUTO 00000KT 7000 BR NCD 04/04 Q1019


Station Type Date Time Source
SCVD Decoded METAR 2019/08/20 10:00 UTC NOAA

Valdivia, Chile (SCVD) 39-37S 073-05W
Aug 20, 2019 - 06:00 AM EDT / 2019.08.20 1000 UTC
Wind: Calm:0
Visibility: 4 mile(s):0
Weather: mist
Temperature: 39 F (4 C)
Dew Point: 39 F (4 C)
Relative Humidity: 100%
Pressure (altimeter): 30.09 in. Hg (1019 hPa)
ob: SCVD 201000Z AUTO 00000KT 7000 BR NCD 04/04 Q1019
cycle: 10

Station Type Date Time Source
SCVD TAF 2019/08/19 12:00 UTC NOAA

TAF SCVD 191108Z 1912/1924 VRB02KT 9999 BKN040 TN04/1912Z TX11/1918Z
BECMG 1918/1920 SCT040

Example: see airport list